createdAt,value
2022-08-17T00:02:26.216Z,21.55
2022-08-17T00:04:54.767Z,21.43
2022-08-17T00:07:21.639Z,22.98
2022-08-17T00:09:48.367Z,20.00
2022-08-17T00:12:43.155Z,19.13
2022-08-17T00:15:02.026Z,22.08
2022-08-17T00:17:28.997Z,24.67
2022-08-17T00:19:55.592Z,22.98
2022-08-17T00:22:34.492Z,19.88
2022-08-17T00:25:07.049Z,20.88
2022-08-17T00:27:33.663Z,21.73
2022-08-17T00:30:00.366Z,22.90
2022-08-17T00:33:12.189Z,24.35
2022-08-17T00:35:17.522Z,20.45
2022-08-17T00:37:44.129Z,21.10
2022-08-17T00:40:14.148Z,22.73
2022-08-17T00:42:42.148Z,20.57
2022-08-17T00:45:11.576Z,18.75
2022-08-17T00:47:38.331Z,22.30
2022-08-17T00:50:08.572Z,20.30
2022-08-17T00:52:41.902Z,20.73
2022-08-17T00:55:09.311Z,19.03
2022-08-17T00:57:41.536Z,19.10
2022-08-17T01:00:17.124Z,18.48
2022-08-17T01:02:46.616Z,18.65
2022-08-17T01:05:26.575Z,20.73
2022-08-17T01:07:55.687Z,17.27
2022-08-17T01:10:59.417Z,18.20
2022-08-17T01:13:39.815Z,19.80
2022-08-17T01:16:26.597Z,20.13
2022-08-17T01:19:00.291Z,16.20
2022-08-17T01:21:31.675Z,14.97
2022-08-17T01:23:58.372Z,17.90
2022-08-17T01:26:25.143Z,15.10
2022-08-17T01:28:55.326Z,17.42
2022-08-17T01:31:25.242Z,17.88
2022-08-17T01:33:52.105Z,17.27
2022-08-17T01:36:19.079Z,17.50
2022-08-17T01:38:45.755Z,15.60
2022-08-17T01:41:16.442Z,13.55
2022-08-17T01:43:54.586Z,14.85
2022-08-17T01:46:30.923Z,12.70
2022-08-17T01:48:58.136Z,16.23
2022-08-17T01:51:27.658Z,14.48
2022-08-17T01:53:57.937Z,17.20
2022-08-17T01:56:26.030Z,16.85
2022-08-17T01:58:53.228Z,16.67
2022-08-17T02:01:22.661Z,20.40
2022-08-17T02:03:59.426Z,18.75
2022-08-17T02:06:44.826Z,17.25
2022-08-17T02:09:19.077Z,18.27
2022-08-17T02:11:52.068Z,22.03
2022-08-17T02:14:21.055Z,21.95
2022-08-17T02:16:47.640Z,30.65
2022-08-17T02:19:16.058Z,23.27
2022-08-17T02:21:45.423Z,24.80
2022-08-17T02:24:17.446Z,21.90
2022-08-17T02:27:04.429Z,25.65
2022-08-17T02:29:31.216Z,24.55
2022-08-17T02:31:58.499Z,27.52
2022-08-17T02:34:25.794Z,23.83
2022-08-17T02:36:53.303Z,23.90
2022-08-17T02:39:19.962Z,24.90
2022-08-17T02:41:46.606Z,23.95
2022-08-17T02:44:13.657Z,27.60
2022-08-17T02:47:00.835Z,26.50
2022-08-17T02:49:27.452Z,26.57
2022-08-17T02:51:54.071Z,23.27
2022-08-17T02:54:41.123Z,22.55
2022-08-17T02:57:07.276Z,24.65
2022-08-17T02:59:33.934Z,21.58
2022-08-17T03:02:02.441Z,23.23
2022-08-17T03:04:29.079Z,21.15
2022-08-17T03:06:55.689Z,22.15
2022-08-17T03:09:23.666Z,19.40
2022-08-17T03:11:51.715Z,21.65
2022-08-17T03:14:25.900Z,22.50
2022-08-17T03:16:53.073Z,20.35
2022-08-17T03:19:19.749Z,20.08
2022-08-17T03:21:46.385Z,21.85
2022-08-17T03:24:21.595Z,26.67
2022-08-17T03:26:55.201Z,23.00
2022-08-17T03:29:21.820Z,19.92
2022-08-17T03:31:49.450Z,20.42
2022-08-17T03:34:16.879Z,23.45
2022-08-17T03:36:43.642Z,22.58
2022-08-17T03:39:10.435Z,18.50
2022-08-17T03:41:38.796Z,18.55
2022-08-17T03:44:05.527Z,26.27
2022-08-17T03:46:50.621Z,23.52
2022-08-17T03:49:35.962Z,22.33
2022-08-17T03:52:21.344Z,21.33
2022-08-17T03:55:06.694Z,17.65
2022-08-17T03:57:33.341Z,19.75
2022-08-17T04:00:00.037Z,23.05
2022-08-17T04:02:32.061Z,19.38
2022-08-17T04:04:59.468Z,19.17
2022-08-17T04:07:28.448Z,19.70
2022-08-17T04:09:55.679Z,20.15
2022-08-17T04:12:25.642Z,19.02
2022-08-17T04:14:54.715Z,18.75
2022-08-17T04:17:24.519Z,18.10
2022-08-17T04:19:51.631Z,19.00
2022-08-17T04:22:32.421Z,20.95
2022-08-17T04:25:16.330Z,21.02
2022-08-17T04:27:42.986Z,20.30
2022-08-17T04:30:10.412Z,20.70
2022-08-17T04:33:05.271Z,24.13
2022-08-17T04:35:37.036Z,22.45
2022-08-17T04:38:04.215Z,23.60
2022-08-17T04:40:49.403Z,22.77
2022-08-17T04:43:19.099Z,28.87
2022-08-17T04:45:56.397Z,24.08
2022-08-17T04:48:29.762Z,26.73
2022-08-17T04:51:03.035Z,30.55
2022-08-17T04:53:29.804Z,30.00
2022-08-17T04:55:58.883Z,32.90
2022-08-17T04:58:25.825Z,29.58
2022-08-17T05:00:52.656Z,29.67
2022-08-17T05:03:19.408Z,33.28
2022-08-17T05:05:52.158Z,30.08
2022-08-17T05:08:20.480Z,25.63
2022-08-17T05:10:48.177Z,26.10
2022-08-17T05:13:20.294Z,25.55
2022-08-17T05:15:48.974Z,20.42
2022-08-17T05:18:17.351Z,21.60
2022-08-17T05:20:44.899Z,17.37
2022-08-17T05:23:14.767Z,18.73
2022-08-17T05:25:47.466Z,20.92
2022-08-17T05:28:15.998Z,17.52
2022-08-17T05:30:43.631Z,13.85
2022-08-17T05:33:16.687Z,11.63
2022-08-17T05:35:49.329Z,14.00
2022-08-17T05:38:21.535Z,11.77
2022-08-17T05:40:49.012Z,8.75
2022-08-17T05:43:19.245Z,10.40
2022-08-17T05:45:57.693Z,11.07
2022-08-17T05:48:35.536Z,8.45
2022-08-17T05:51:25.751Z,9.73
2022-08-17T05:54:04.455Z,11.32
2022-08-17T05:57:08.849Z,10.65
2022-08-17T05:59:48.514Z,12.30
2022-08-17T06:02:47.858Z,9.18
2022-08-17T06:05:52.099Z,9.38
2022-08-17T06:08:37.736Z,11.82
2022-08-17T06:11:16.472Z,8.18
2022-08-17T06:14:05.373Z,8.30
2022-08-17T06:16:37.344Z,8.27
2022-08-17T06:19:23.342Z,8.98
2022-08-17T06:21:52.964Z,7.88
2022-08-17T06:24:28.459Z,9.18
2022-08-17T06:27:01.113Z,9.27
2022-08-17T06:29:35.327Z,9.40
2022-08-17T06:32:02.692Z,9.95
2022-08-17T06:34:29.811Z,10.80
2022-08-17T06:37:22.132Z,10.95
2022-08-17T06:40:18.453Z,11.20
2022-08-17T06:43:32.609Z,12.73
2022-08-17T06:46:11.401Z,12.02
2022-08-17T06:48:49.047Z,11.55
2022-08-17T06:51:34.529Z,12.27
2022-08-17T06:54:16.659Z,12.27
2022-08-17T06:56:53.694Z,14.57
2022-08-17T06:59:54.384Z,13.35
2022-08-17T07:02:54.245Z,14.15
2022-08-17T07:05:25.345Z,13.85
2022-08-17T07:08:07.270Z,13.57
2022-08-17T07:10:44.761Z,13.85
2022-08-17T07:13:25.363Z,14.40
2022-08-17T07:15:59.704Z,13.05
2022-08-17T07:18:29.552Z,15.52
2022-08-17T07:21:03.816Z,15.93
2022-08-17T07:23:47.303Z,14.07
2022-08-17T07:26:14.074Z,17.67
2022-08-17T07:28:42.318Z,13.23
2022-08-17T07:31:13.197Z,16.45
2022-08-17T07:33:40.914Z,15.17
2022-08-17T07:36:29.646Z,14.95
2022-08-17T07:38:58.159Z,13.30
2022-08-17T07:41:24.918Z,16.25
2022-08-17T07:43:52.753Z,14.30
2022-08-17T07:46:40.696Z,16.33
2022-08-17T07:49:10.062Z,12.27
2022-08-17T07:51:55.294Z,14.05
2022-08-17T07:54:29.487Z,16.42
2022-08-17T07:57:29.981Z,16.13
2022-08-17T07:59:59.785Z,13.60
2022-08-17T08:02:41.389Z,17.30
2022-08-17T08:05:29.868Z,16.30
2022-08-17T08:08:28.381Z,15.38
2022-08-17T08:11:02.792Z,15.93
2022-08-17T08:13:31.608Z,17.57
2022-08-17T08:16:24.512Z,15.38
2022-08-17T08:18:57.247Z,14.52
2022-08-17T08:21:43.321Z,13.95
2022-08-17T08:24:40.088Z,17.38
2022-08-17T08:27:28.988Z,14.87
2022-08-17T08:30:08.154Z,13.43
2022-08-17T08:32:59.508Z,13.55
2022-08-17T08:35:31.031Z,12.43
2022-08-17T08:38:23.192Z,11.75
2022-08-17T08:40:49.760Z,12.70
2022-08-17T08:43:37.340Z,14.00
2022-08-17T08:46:25.684Z,12.82
2022-08-17T08:49:45.176Z,12.10
2022-08-17T08:52:36.721Z,9.35
2022-08-17T08:55:15.356Z,13.10
2022-08-17T08:57:52.819Z,12.93
2022-08-17T09:00:25.260Z,9.48
2022-08-17T09:03:10.889Z,10.63
2022-08-17T09:06:32.283Z,10.02
2022-08-17T09:09:35.666Z,10.43
2022-08-17T09:12:21.203Z,8.30
2022-08-17T09:15:13.328Z,8.65
2022-08-17T09:18:59.039Z,11.50
2022-08-17T09:20:55.467Z,9.52
2022-08-17T09:23:34.678Z,8.20
2022-08-17T09:26:10.162Z,6.95
2022-08-17T09:28:40.064Z,7.82
2022-08-17T09:31:10.270Z,8.18
2022-08-17T09:33:46.749Z,8.35
2022-08-17T09:36:26.597Z,7.83
2022-08-17T09:39:15.746Z,7.57
2022-08-17T09:42:06.773Z,9.88
2022-08-17T09:44:39.794Z,8.38
2022-08-17T09:47:33.389Z,8.38
2022-08-17T09:50:11.413Z,17.80
2022-08-17T09:52:38.100Z,17.45
2022-08-17T09:55:06.308Z,13.05
2022-08-17T09:57:44.383Z,11.23
2022-08-17T10:00:16.441Z,12.52
2022-08-17T10:03:02.520Z,12.47
2022-08-17T10:05:48.318Z,14.60
2022-08-17T10:08:32.808Z,13.73
2022-08-17T10:11:16.598Z,11.38
2022-08-17T10:13:54.676Z,11.32
2022-08-17T10:16:48.988Z,13.30
2022-08-17T10:19:25.249Z,11.98
2022-08-17T10:22:32.986Z,13.75
2022-08-17T10:25:24.224Z,14.98
2022-08-17T10:27:59.724Z,18.73
2022-08-17T10:30:29.804Z,17.10
2022-08-17T10:33:02.217Z,13.95
2022-08-17T10:35:46.905Z,13.00
2022-08-17T10:38:26.479Z,16.23
2022-08-17T10:41:24.558Z,16.60
2022-08-17T10:44:38.602Z,11.47
2022-08-17T10:47:15.285Z,12.82
2022-08-17T10:49:53.811Z,11.55
2022-08-17T10:52:20.715Z,11.77
2022-08-17T10:54:58.053Z,10.80
2022-08-17T10:57:33.989Z,14.47
2022-08-17T11:00:05.137Z,12.70
2022-08-17T11:02:42.537Z,12.30
2022-08-17T11:05:22.169Z,11.57
2022-08-17T11:08:19.044Z,13.50
2022-08-17T11:11:04.881Z,13.33
2022-08-17T11:13:48.421Z,14.98
2022-08-17T11:16:33.146Z,16.85
2022-08-17T11:19:41.728Z,18.52
2022-08-17T11:22:33.917Z,18.25
2022-08-17T11:25:31.107Z,15.60
2022-08-17T11:28:25.544Z,17.05
2022-08-17T11:31:01.153Z,18.65
2022-08-17T11:33:38.265Z,16.40
2022-08-17T11:36:35.773Z,20.17
2022-08-17T11:39:24.344Z,17.43
2022-08-17T11:41:56.974Z,19.55
2022-08-17T11:44:46.707Z,20.15
2022-08-17T11:48:24.264Z,23.63
2022-08-17T11:51:12.750Z,23.42
2022-08-17T11:53:39.356Z,25.53
2022-08-17T11:56:26.714Z,25.73
2022-08-17T11:58:53.326Z,21.33
2022-08-17T12:01:22.656Z,22.65
2022-08-17T12:04:00.841Z,25.55
2022-08-17T12:06:35.061Z,26.60
2022-08-17T12:09:11.997Z,27.00
2022-08-17T12:11:55.124Z,24.88
2022-08-17T12:15:07.983Z,28.48
2022-08-17T12:17:39.175Z,30.50
2022-08-17T12:20:22.082Z,29.87
2022-08-17T12:23:12.568Z,27.90
2022-08-17T12:25:49.277Z,34.30
2022-08-17T12:28:35.788Z,28.55
2022-08-17T12:37:54.662Z,28.38
2022-08-17T12:44:31.924Z,25.10
2022-08-17T12:47:22.236Z,26.55
2022-08-17T12:49:54.708Z,27.83
2022-08-17T12:52:27.221Z,27.58
2022-08-17T12:55:06.895Z,31.23
2022-08-17T12:57:44.099Z,32.03
2022-08-17T13:00:17.539Z,30.55
2022-08-17T13:02:52.102Z,32.90
2022-08-17T13:05:37.775Z,33.75
2022-08-17T13:08:15.845Z,30.05
2022-08-17T13:10:42.996Z,29.38
2022-08-17T13:13:45.581Z,31.25
2022-08-17T13:16:12.196Z,29.93
2022-08-17T13:18:47.498Z,32.10
2022-08-17T13:21:20.041Z,29.27
2022-08-17T13:24:14.617Z,33.38
2022-08-17T13:26:46.366Z,33.70
2022-08-17T13:29:41.154Z,38.03
2022-08-17T13:32:13.485Z,34.85
2022-08-17T13:35:15.377Z,38.63
2022-08-17T13:38:20.066Z,34.83
2022-08-17T13:40:58.457Z,36.25
2022-08-17T13:49:49.185Z,35.95
2022-08-17T13:52:41.650Z,34.38
2022-08-17T13:55:37.234Z,34.15
2022-08-17T14:02:10.484Z,36.80
2022-08-17T14:04:54.444Z,33.38
2022-08-17T14:10:19.817Z,33.25
2022-08-17T14:13:02.741Z,32.00
2022-08-17T14:15:55.581Z,28.60
2022-08-17T14:18:56.413Z,34.05
2022-08-17T14:21:30.878Z,29.90
2022-08-17T14:27:52.977Z,31.03
2022-08-17T14:30:29.004Z,31.75
2022-08-17T14:38:59.902Z,32.88
2022-08-17T14:44:23.680Z,31.73
2022-08-17T14:47:39.870Z,31.08
2022-08-17T14:57:22.231Z,31.03
2022-08-17T15:15:23.286Z,33.80
2022-08-17T15:17:53.142Z,29.48
2022-08-17T15:23:23.109Z,34.60
2022-08-17T15:25:58.158Z,31.10
2022-08-17T15:28:56.079Z,31.08
2022-08-17T15:31:31.869Z,28.60
2022-08-17T15:33:59.174Z,30.55
2022-08-17T15:36:33.452Z,27.92
2022-08-17T15:39:01.901Z,31.75
2022-08-17T15:41:34.031Z,30.63
2022-08-17T15:44:00.653Z,30.60
2022-08-17T15:46:29.262Z,29.50
2022-08-17T15:48:59.726Z,28.60
2022-08-17T15:52:14.120Z,30.02
2022-08-17T15:54:40.846Z,27.83
2022-08-17T15:57:12.048Z,30.60
2022-08-17T15:59:41.326Z,28.38
2022-08-17T16:03:14.331Z,26.48
2022-08-17T16:05:12.019Z,31.05
2022-08-17T16:07:40.573Z,27.10
2022-08-17T16:10:08.504Z,29.60
2022-08-17T16:12:35.687Z,26.70
2022-08-17T16:15:02.772Z,28.63
2022-08-17T16:17:39.830Z,28.00
2022-08-17T16:20:09.568Z,27.20
2022-08-17T16:22:47.954Z,28.42
2022-08-17T16:25:19.106Z,26.85
2022-08-17T16:27:48.583Z,22.80
2022-08-17T16:30:17.644Z,26.67
2022-08-17T16:32:44.846Z,28.08
2022-08-17T16:35:14.258Z,24.63
2022-08-17T16:37:44.596Z,26.13
2022-08-17T16:40:14.195Z,25.13
2022-08-17T16:42:42.744Z,24.38
2022-08-17T16:45:11.772Z,21.98
2022-08-17T16:47:40.811Z,26.20
2022-08-17T16:50:09.452Z,24.08
2022-08-17T16:52:36.585Z,23.98
2022-08-17T16:55:05.205Z,23.50
2022-08-17T16:57:31.992Z,24.90
2022-08-17T16:59:58.625Z,27.00
2022-08-17T17:02:32.827Z,26.95
2022-08-17T17:05:22.108Z,27.13
2022-08-17T17:08:08.911Z,30.23
2022-08-17T17:10:38.731Z,25.67
2022-08-17T17:13:12.581Z,27.35
2022-08-17T17:15:55.107Z,28.85
2022-08-17T17:18:31.752Z,29.13
2022-08-17T17:20:59.228Z,27.92
2022-08-17T17:23:37.793Z,33.67
2022-08-17T17:26:19.954Z,27.85
2022-08-17T17:29:33.987Z,31.20
2022-08-17T17:32:21.796Z,33.38
2022-08-17T17:34:53.804Z,29.95
2022-08-17T17:37:27.308Z,31.42
2022-08-17T17:39:59.108Z,30.83
2022-08-17T17:42:31.314Z,35.80
2022-08-17T17:45:07.246Z,32.25
2022-08-17T17:47:34.914Z,30.60
2022-08-17T17:50:03.624Z,32.47
2022-08-17T17:52:41.293Z,38.78
2022-08-17T17:55:32.821Z,34.70
2022-08-17T17:58:08.375Z,35.55
2022-08-17T18:00:44.079Z,36.60
2022-08-17T18:03:23.837Z,35.67
2022-08-17T18:06:39.652Z,34.90
2022-08-17T18:09:12.280Z,41.22
2022-08-17T18:12:14.564Z,36.80
2022-08-17T18:14:58.439Z,38.08
2022-08-17T18:17:25.073Z,37.72
2022-08-17T18:19:55.236Z,34.08
2022-08-17T18:22:23.515Z,34.72
2022-08-17T18:24:55.848Z,37.55
2022-08-17T18:27:37.169Z,41.95
2022-08-17T18:30:27.226Z,48.47
2022-08-17T18:32:53.945Z,58.90
2022-08-17T18:35:22.143Z,48.08
2022-08-17T18:38:19.440Z,57.70
2022-08-17T18:40:57.162Z,47.58
2022-08-17T18:43:27.593Z,65.68
2022-08-17T18:46:41.778Z,50.30
2022-08-17T18:49:26.939Z,42.08
2022-08-17T18:52:22.581Z,44.55
2022-08-17T18:55:28.298Z,43.65
2022-08-17T18:58:14.461Z,45.13
2022-08-17T19:00:43.666Z,45.88
2022-08-17T19:03:16.588Z,48.00
2022-08-17T19:05:52.684Z,36.97
2022-08-17T19:08:39.567Z,38.97
2022-08-17T19:11:09.144Z,34.67
2022-08-17T19:13:47.517Z,38.72
2022-08-17T19:16:29.244Z,38.17
2022-08-17T19:19:16.024Z,37.95
2022-08-17T19:21:53.114Z,36.13
2022-08-17T19:24:20.896Z,50.85
2022-08-17T19:27:03.009Z,39.40
2022-08-17T19:29:41.083Z,44.40
2022-08-17T19:32:09.930Z,41.20
2022-08-17T19:34:37.984Z,37.88
2022-08-17T19:37:42.095Z,46.53
2022-08-17T19:40:51.581Z,41.85
2022-08-17T19:43:26.784Z,44.17
2022-08-17T19:46:25.832Z,39.97
2022-08-17T19:49:06.037Z,33.10
2022-08-17T19:51:45.656Z,42.33
2022-08-17T19:54:28.868Z,36.13
2022-08-17T19:57:40.682Z,36.05
2022-08-17T20:00:18.115Z,32.20
2022-08-17T20:03:08.136Z,32.22
2022-08-17T20:06:11.394Z,39.30
2022-08-17T20:08:52.125Z,34.03
2022-08-17T20:11:46.708Z,36.17
2022-08-17T20:14:21.905Z,35.55
2022-08-17T20:16:48.716Z,33.78
2022-08-17T20:19:27.653Z,33.95
2022-08-17T20:22:09.379Z,34.55
2022-08-17T20:25:09.679Z,32.00
2022-08-17T20:28:00.639Z,35.97
2022-08-17T20:30:40.923Z,31.75
2022-08-17T20:33:32.384Z,31.70
2022-08-17T20:36:14.222Z,30.08
2022-08-17T20:38:47.633Z,31.50
2022-08-17T20:41:18.116Z,27.73
2022-08-17T20:44:00.965Z,33.65
2022-08-17T20:46:36.718Z,32.40
2022-08-17T20:49:38.498Z,27.48
2022-08-17T20:52:08.868Z,26.58
2022-08-17T20:55:08.084Z,31.75
2022-08-17T20:57:34.682Z,29.17
2022-08-17T21:00:14.409Z,30.88
2022-08-17T21:02:46.089Z,29.15
2022-08-17T21:06:00.331Z,41.15
2022-08-17T21:08:33.224Z,30.52
2022-08-17T21:11:20.837Z,25.52
2022-08-17T21:14:31.728Z,32.63
2022-08-17T21:17:19.444Z,26.70
2022-08-17T21:20:14.730Z,27.02
2022-08-17T21:23:16.471Z,29.38
2022-08-17T21:26:09.700Z,31.13
2022-08-17T21:29:32.419Z,28.30
2022-08-17T21:32:03.425Z,28.60
2022-08-17T21:34:34.588Z,29.25
2022-08-17T21:37:19.954Z,42.50
2022-08-17T21:39:54.963Z,28.02
2022-08-17T21:42:29.621Z,28.60
2022-08-17T21:45:00.568Z,27.80
2022-08-17T21:47:29.799Z,27.77
2022-08-17T21:50:15.927Z,25.13
2022-08-17T21:52:43.403Z,27.02
2022-08-17T21:55:20.248Z,24.02
2022-08-17T21:57:53.107Z,30.15
2022-08-17T22:00:35.452Z,24.38
2022-08-17T22:03:06.655Z,23.55
2022-08-17T22:05:37.812Z,26.15
2022-08-17T22:08:09.272Z,23.52
2022-08-17T22:10:44.903Z,20.50
2022-08-17T22:13:17.103Z,21.30
2022-08-17T22:15:47.056Z,20.70
2022-08-17T22:18:21.359Z,22.27
2022-08-17T22:20:54.607Z,20.35
2022-08-17T22:23:53.518Z,22.63
2022-08-17T22:26:22.472Z,21.40
2022-08-17T22:28:52.969Z,19.88
2022-08-17T22:31:25.521Z,16.73
2022-08-17T22:33:52.106Z,15.32
2022-08-17T22:36:41.828Z,18.75
2022-08-17T22:39:08.387Z,20.80
2022-08-17T22:41:48.019Z,19.40
2022-08-17T22:44:19.772Z,15.88
2022-08-17T22:47:11.366Z,21.33
2022-08-17T22:49:53.216Z,15.55
2022-08-17T22:52:56.630Z,17.98
2022-08-17T22:55:42.003Z,16.08
2022-08-17T22:58:40.013Z,20.70
2022-08-17T23:01:31.482Z,19.45
2022-08-17T23:04:01.394Z,19.25
2022-08-17T23:06:29.683Z,21.80
2022-08-17T23:08:57.499Z,16.80
2022-08-17T23:11:36.955Z,19.58
2022-08-17T23:14:15.670Z,19.87
2022-08-17T23:16:42.771Z,22.02
2022-08-17T23:19:15.193Z,18.88
2022-08-17T23:21:44.611Z,20.77
2022-08-17T23:24:16.920Z,16.45
2022-08-17T23:26:43.547Z,19.90
2022-08-17T23:29:10.140Z,17.02
2022-08-17T23:31:38.764Z,18.88
2022-08-17T23:34:09.849Z,20.25
2022-08-17T23:36:36.474Z,21.95
2022-08-17T23:39:05.383Z,20.80
2022-08-17T23:41:36.254Z,21.17
2022-08-17T23:44:05.496Z,19.88
2022-08-17T23:46:32.720Z,17.77
2022-08-17T23:48:59.502Z,20.10
2022-08-17T23:51:31.379Z,18.63
2022-08-17T23:54:08.168Z,24.48
2022-08-17T23:56:41.731Z,20.95
2022-08-17T23:59:08.322Z,22.85
